createdAt,value
2018-10-03T00:00:28.407Z,4.37
2018-10-03T00:02:57.220Z,3.13
2018-10-03T00:05:26.093Z,4.43
2018-10-03T00:07:54.917Z,2.73
2018-10-03T00:10:23.775Z,4.30
2018-10-03T00:12:52.616Z,4.43
2018-10-03T00:15:21.476Z,4.97
2018-10-03T00:17:50.260Z,2.37
2018-10-03T00:20:19.112Z,6.47
2018-10-03T00:22:47.943Z,2.00
2018-10-03T00:25:16.736Z,2.43
2018-10-03T00:27:45.689Z,3.47
2018-10-03T00:47:41.810Z,5.00
2018-10-03T00:50:10.632Z,5.07
2018-10-03T00:52:39.523Z,5.30
2018-10-03T00:55:08.796Z,4.10
2018-10-03T01:14:59.285Z,2.73
2018-10-03T01:17:28.097Z,3.80
2018-10-03T01:19:56.925Z,4.03
2018-10-03T01:22:25.799Z,1.53
2018-10-03T01:24:54.618Z,2.37
2018-10-03T01:27:23.448Z,5.50
2018-10-03T01:29:52.232Z,1.53
2018-10-03T01:32:21.077Z,2.60
2018-10-03T01:34:49.965Z,2.20
2018-10-03T01:37:18.758Z,1.60
2018-10-03T01:39:47.621Z,1.30
2018-10-03T01:42:16.408Z,1.53
2018-10-03T01:44:45.304Z,3.53
2018-10-03T01:47:14.240Z,1.40
2018-10-03T01:49:43.046Z,3.23
2018-10-03T01:52:11.840Z,1.67
2018-10-03T01:54:40.653Z,1.50
2018-10-03T01:57:09.586Z,1.20
2018-10-03T01:59:38.453Z,1.43
2018-10-03T02:02:07.360Z,2.80
2018-10-03T02:04:36.204Z,1.47
2018-10-03T02:07:05.044Z,1.80
2018-10-03T02:09:33.872Z,1.37
2018-10-03T02:12:02.725Z,2.47
2018-10-03T02:14:31.633Z,2.27
2018-10-03T02:17:00.544Z,1.53
2018-10-03T02:19:29.333Z,3.43
2018-10-03T02:21:58.521Z,1.00
2018-10-03T02:24:27.488Z,0.73
2018-10-03T02:26:56.261Z,2.87
2018-10-03T02:29:25.148Z,1.20
2018-10-03T02:31:53.970Z,1.83
2018-10-03T02:34:22.828Z,1.90
2018-10-03T02:36:51.691Z,1.07
2018-10-03T02:39:20.513Z,4.97
2018-10-03T02:41:49.345Z,1.40
2018-10-03T02:44:18.185Z,2.30
2018-10-03T02:46:47.087Z,4.53
2018-10-03T02:49:15.908Z,1.90
2018-10-03T02:51:44.727Z,2.87
2018-10-03T02:54:13.585Z,2.70
2018-10-03T02:56:42.439Z,3.57
2018-10-03T02:59:11.274Z,2.87
2018-10-03T03:01:40.341Z,2.20
2018-10-03T03:04:09.084Z,3.93
2018-10-03T03:06:37.881Z,4.47
2018-10-03T03:09:09.059Z,4.93
2018-10-03T03:11:37.809Z,2.77
2018-10-03T03:14:06.628Z,3.60
2018-10-03T03:16:35.444Z,4.10
2018-10-03T03:19:04.589Z,3.07
2018-10-03T03:21:33.484Z,3.70
2018-10-03T03:24:02.269Z,3.07
2018-10-03T03:26:31.196Z,3.03
2018-10-03T03:29:00.079Z,3.40
2018-10-03T03:31:28.970Z,3.57
2018-10-03T03:33:57.772Z,2.17
2018-10-03T03:36:26.588Z,4.03
2018-10-03T03:38:55.436Z,1.40
2018-10-03T03:41:24.273Z,2.63
2018-10-03T03:43:53.089Z,2.63
2018-10-03T03:46:21.949Z,2.83
2018-10-03T03:48:50.769Z,1.57
2018-10-03T03:51:19.569Z,2.50
2018-10-03T03:53:48.385Z,3.10
2018-10-03T03:56:17.200Z,8.47
2018-10-03T04:16:06.358Z,1.47
2018-10-03T04:18:35.202Z,1.10
2018-10-03T04:21:04.056Z,2.50
2018-10-03T04:23:32.868Z,0.93
2018-10-03T04:26:01.661Z,2.37
2018-10-03T04:28:30.476Z,1.00
2018-10-03T04:30:59.301Z,1.53
2018-10-03T04:33:28.169Z,2.00
2018-10-03T04:35:56.976Z,1.23
2018-10-03T04:38:25.804Z,0.90
2018-10-03T04:40:54.589Z,2.33
2018-10-03T04:43:23.400Z,1.70
2018-10-03T04:45:52.249Z,1.03
2018-10-03T04:48:21.037Z,0.80
2018-10-03T04:50:49.830Z,1.23
2018-10-03T04:53:18.648Z,1.93
2018-10-03T04:55:47.474Z,1.50
2018-10-03T04:58:16.297Z,2.03
2018-10-03T05:00:45.125Z,1.87
2018-10-03T05:03:13.942Z,1.00
2018-10-03T05:05:42.772Z,6.17
2018-10-03T05:08:11.589Z,4.23
2018-10-03T05:10:40.440Z,2.70
2018-10-03T05:13:09.237Z,2.73
2018-10-03T05:15:38.073Z,1.70
2018-10-03T05:18:06.881Z,3.07
2018-10-03T05:20:36.145Z,1.07
2018-10-03T05:23:05.169Z,1.00
2018-10-03T05:25:33.957Z,1.30
2018-10-03T05:28:02.784Z,1.00
2018-10-03T05:30:31.614Z,1.33
2018-10-03T05:33:00.449Z,1.10
2018-10-03T05:35:29.329Z,1.83
2018-10-03T05:37:58.194Z,1.80
2018-10-03T05:40:27.068Z,2.03
2018-10-03T05:42:55.900Z,1.10
2018-10-03T05:45:24.701Z,1.33
2018-10-03T05:47:53.541Z,3.23
2018-10-03T05:50:22.429Z,2.13
2018-10-03T05:52:51.466Z,2.17
2018-10-03T05:55:20.325Z,4.30
2018-10-03T05:57:49.178Z,1.70
2018-10-03T06:00:18.096Z,2.50
2018-10-03T06:02:46.975Z,1.30
2018-10-03T06:05:15.852Z,3.93
2018-10-03T06:07:44.724Z,2.20
2018-10-03T06:10:13.509Z,2.70
2018-10-03T06:12:42.302Z,1.50
2018-10-03T06:15:11.152Z,1.43
2018-10-03T06:17:39.979Z,1.60
2018-10-03T06:20:08.928Z,2.43
2018-10-03T06:22:37.794Z,3.87
2018-10-03T06:25:06.617Z,1.37
2018-10-03T06:27:35.502Z,1.87
2018-10-03T06:30:04.335Z,3.93
2018-10-03T06:32:33.155Z,4.03
2018-10-03T06:35:01.990Z,2.70
2018-10-03T06:37:30.864Z,4.57
2018-10-03T06:39:59.858Z,2.67
2018-10-03T06:42:28.720Z,4.53
2018-10-03T06:44:57.545Z,2.07
2018-10-03T06:47:26.436Z,2.47
2018-10-03T06:49:55.261Z,3.20
2018-10-03T06:52:24.081Z,1.30
2018-10-03T06:54:52.901Z,2.73
2018-10-03T06:57:21.737Z,1.73
2018-10-03T06:59:50.577Z,1.83
2018-10-03T07:02:19.409Z,1.07
2018-10-03T07:04:48.201Z,1.47
2018-10-03T07:07:17.094Z,1.10
2018-10-03T07:09:45.931Z,1.20
2018-10-03T07:12:14.725Z,0.97
2018-10-03T07:14:43.542Z,0.80
2018-10-03T07:17:13.328Z,0.77
2018-10-03T07:19:42.194Z,1.03
2018-10-03T07:22:10.983Z,1.13
2018-10-03T07:24:40.005Z,1.30
2018-10-03T07:27:08.896Z,0.80
2018-10-03T07:29:37.744Z,0.60
2018-10-03T07:32:06.620Z,0.73
2018-10-03T07:34:35.421Z,0.67
2018-10-03T07:37:04.304Z,0.80
2018-10-03T07:39:33.282Z,1.67
2018-10-03T07:42:02.136Z,0.90
2018-10-03T07:44:30.961Z,2.30
2018-10-03T07:46:59.805Z,1.20
2018-10-03T07:49:28.618Z,2.20
2018-10-03T07:52:01.011Z,1.80
2018-10-03T07:54:31.206Z,1.57
2018-10-03T07:57:00.085Z,2.47
2018-10-03T07:59:28.900Z,1.60
2018-10-03T08:01:57.689Z,0.83
2018-10-03T08:04:26.510Z,0.47
2018-10-03T08:06:55.375Z,0.60
2018-10-03T08:09:24.233Z,1.17
2018-10-03T08:11:53.033Z,0.30
2018-10-03T08:14:21.863Z,0.37
2018-10-03T08:16:50.708Z,0.60
2018-10-03T08:19:19.493Z,0.60
2018-10-03T08:21:48.346Z,1.43
2018-10-03T08:24:17.171Z,0.87
2018-10-03T08:26:45.984Z,1.67
2018-10-03T08:29:14.817Z,0.87
2018-10-03T08:31:43.665Z,2.50
2018-10-03T08:34:12.456Z,2.73
2018-10-03T08:36:41.348Z,0.60
2018-10-03T08:39:12.056Z,1.23
2018-10-03T08:41:40.873Z,2.00
2018-10-03T08:44:10.221Z,1.33
2018-10-03T08:46:39.124Z,0.83
2018-10-03T08:49:08.092Z,1.43
2018-10-03T08:51:36.902Z,0.70
2018-10-03T08:54:05.922Z,1.23
2018-10-03T08:56:34.881Z,1.33
2018-10-03T08:59:03.673Z,2.63
2018-10-03T09:01:32.539Z,2.73
2018-10-03T09:04:01.362Z,1.40
2018-10-03T09:06:30.213Z,1.57
2018-10-03T09:08:59.033Z,1.13
2018-10-03T09:11:27.877Z,1.60
2018-10-03T09:13:56.743Z,1.40
2018-10-03T09:16:25.570Z,2.50
2018-10-03T09:18:54.461Z,2.77
2018-10-03T09:21:23.387Z,0.40
2018-10-03T09:23:52.160Z,1.00
2018-10-03T09:26:21.036Z,1.63
2018-10-03T09:28:49.858Z,1.13
2018-10-03T09:31:18.718Z,0.60
2018-10-03T09:33:47.540Z,0.40
2018-10-03T09:36:16.871Z,1.07
2018-10-03T09:38:45.694Z,1.47
2018-10-03T09:41:14.517Z,0.40
2018-10-03T09:43:43.368Z,1.07
2018-10-03T09:46:12.225Z,1.80
2018-10-03T09:48:41.331Z,0.67
2018-10-03T09:51:10.270Z,1.10
2018-10-03T09:53:39.113Z,2.33
2018-10-03T09:56:08.045Z,1.27
2018-10-03T09:58:36.964Z,3.10
2018-10-03T10:01:11.021Z,1.67
2018-10-03T10:03:39.881Z,1.40
2018-10-03T10:06:08.833Z,2.67
2018-10-03T10:08:37.715Z,1.73
2018-10-03T10:11:06.548Z,0.57
2018-10-03T10:13:35.331Z,2.30
2018-10-03T10:16:04.158Z,1.03
2018-10-03T10:18:32.999Z,2.77
2018-10-03T10:21:01.879Z,2.90
2018-10-03T10:23:30.728Z,2.07
2018-10-03T10:25:59.532Z,3.03
2018-10-03T10:28:28.523Z,5.93
2018-10-03T10:30:57.448Z,3.40
2018-10-03T10:33:26.331Z,2.53
2018-10-03T10:35:55.330Z,2.00
2018-10-03T10:38:25.360Z,2.73
2018-10-03T10:40:54.319Z,1.60
2018-10-03T10:43:23.155Z,3.67
2018-10-03T10:45:52.022Z,2.10
2018-10-03T10:48:21.017Z,3.80
2018-10-03T10:50:49.872Z,2.63
2018-10-03T10:53:18.713Z,2.33
2018-10-03T10:55:47.728Z,5.40
2018-10-03T10:58:16.681Z,3.07
2018-10-03T11:00:45.573Z,2.37
2018-10-03T11:03:14.493Z,6.40
2018-10-03T11:05:43.425Z,2.00
2018-10-03T11:08:12.368Z,2.80
2018-10-03T11:10:41.254Z,2.30
2018-10-03T11:13:10.128Z,2.57
2018-10-03T11:15:39.591Z,3.23
2018-10-03T11:18:08.672Z,2.47
2018-10-03T11:20:37.761Z,8.27
2018-10-03T11:23:06.685Z,2.30
2018-10-03T11:25:35.739Z,18.57
2018-10-03T11:28:04.991Z,17.93
2018-10-03T11:30:33.914Z,6.23
2018-10-03T11:33:02.907Z,3.57
2018-10-03T11:35:31.867Z,9.40
2018-10-03T11:38:00.784Z,4.13
2018-10-03T11:40:29.649Z,3.50
2018-10-03T11:42:58.641Z,12.17
2018-10-03T11:45:27.963Z,7.60
2018-10-03T11:47:56.985Z,4.53
2018-10-03T12:07:47.559Z,5.33
2018-10-03T12:10:31.990Z,2.63
2018-10-03T12:13:01.977Z,1.10
2018-10-03T12:15:30.942Z,2.67
2018-10-03T12:17:59.937Z,1.90
2018-10-03T12:20:29.937Z,5.37
2018-10-03T12:22:58.857Z,2.20
2018-10-03T12:25:27.789Z,3.63
2018-10-03T12:27:56.745Z,2.47
2018-10-03T12:30:25.779Z,2.13
2018-10-03T12:32:54.704Z,2.10
2018-10-03T12:35:29.082Z,2.17
2018-10-03T12:37:58.081Z,2.27
2018-10-03T12:40:27.022Z,3.10
2018-10-03T12:42:55.969Z,3.70
2018-10-03T12:45:24.977Z,2.07
2018-10-03T12:47:55.251Z,3.20
2018-10-03T12:50:24.199Z,4.30
2018-10-03T12:52:53.574Z,2.57
2018-10-03T12:55:22.921Z,2.77
2018-10-03T12:57:51.916Z,2.00
2018-10-03T13:00:21.361Z,7.50
2018-10-03T13:02:50.299Z,3.40
2018-10-03T13:05:19.253Z,7.97
2018-10-03T13:07:48.314Z,2.47
2018-10-03T13:10:17.233Z,2.87
2018-10-03T13:12:46.333Z,4.43
2018-10-03T13:15:15.290Z,6.77
2018-10-03T13:17:44.285Z,2.33
2018-10-03T13:20:13.227Z,15.07
2018-10-03T13:22:42.165Z,0.93
2018-10-03T13:25:11.150Z,10.70
2018-10-03T13:27:40.293Z,1.63
2018-10-03T13:30:09.324Z,3.13
2018-10-03T13:32:38.389Z,1.13
2018-10-03T13:35:07.353Z,5.33
2018-10-03T13:37:36.336Z,1.90
2018-10-03T13:40:05.374Z,3.73
2018-10-03T13:42:34.322Z,1.63
2018-10-03T13:45:03.249Z,5.23
2018-10-03T13:47:32.361Z,1.60
2018-10-03T13:50:01.415Z,2.93
2018-10-03T13:52:30.449Z,1.53
2018-10-03T13:54:59.395Z,6.83
2018-10-03T13:57:28.340Z,3.87
2018-10-03T13:59:57.281Z,1.73
2018-10-03T14:02:26.189Z,1.80
2018-10-03T14:04:55.138Z,1.97
2018-10-03T14:07:24.085Z,1.80
2018-10-03T14:09:52.980Z,3.83
2018-10-03T14:12:22.003Z,1.50
2018-10-03T14:14:51.042Z,4.67
2018-10-03T14:17:19.906Z,6.17
2018-10-03T14:19:48.757Z,5.13
2018-10-03T14:22:17.539Z,7.00
2018-10-03T14:24:46.428Z,3.30
2018-10-03T14:27:15.608Z,7.57
2018-10-03T14:47:12.137Z,5.40
2018-10-03T14:49:41.095Z,2.90
2018-10-03T14:52:11.021Z,3.60
2018-10-03T14:54:40.011Z,2.10
2018-10-03T14:59:44.690Z,2.30
2018-10-03T15:02:13.668Z,2.73
2018-10-03T15:04:42.670Z,2.43
2018-10-03T15:07:11.518Z,1.80
2018-10-03T15:09:40.421Z,5.13
2018-10-03T15:12:09.302Z,1.87
2018-10-03T15:14:38.150Z,2.97
2018-10-03T15:17:07.087Z,4.27
2018-10-03T15:19:35.916Z,4.67
2018-10-03T15:22:04.748Z,4.83
2018-10-03T15:24:33.657Z,1.90
2018-10-03T15:27:02.608Z,2.10
2018-10-03T15:29:31.855Z,2.43
2018-10-03T15:32:00.676Z,2.63
2018-10-03T15:51:51.135Z,7.30
2018-10-03T15:54:19.948Z,7.60
2018-10-03T15:56:48.848Z,3.03
2018-10-03T15:59:17.669Z,4.87
2018-10-03T16:01:46.520Z,8.00
2018-10-03T16:04:15.399Z,7.17
2018-10-03T16:06:44.965Z,6.87
2018-10-03T16:09:13.855Z,6.23
2018-10-03T16:11:43.000Z,7.03
2018-10-03T16:14:12.180Z,6.30
2018-10-03T16:16:41.893Z,6.63
2018-10-03T16:19:10.786Z,13.33
2018-10-03T16:21:40.352Z,4.27
2018-10-03T16:24:09.299Z,6.73
2018-10-03T16:26:38.308Z,4.80
2018-10-03T16:29:07.305Z,5.03
2018-10-03T16:31:36.244Z,7.67
2018-10-03T16:34:05.189Z,7.57
2018-10-03T16:36:34.173Z,8.83
2018-10-03T16:39:03.857Z,5.83
2018-10-03T16:41:33.593Z,12.33
2018-10-03T16:44:02.468Z,6.83
2018-10-03T16:46:31.383Z,6.27
2018-10-03T16:49:00.352Z,4.10
2018-10-03T16:51:29.183Z,9.33
2018-10-03T16:53:58.085Z,6.30
2018-10-03T16:56:26.996Z,9.80
2018-10-03T16:58:55.887Z,7.87
2018-10-03T17:01:24.837Z,6.90
2018-10-03T17:03:54.315Z,6.57
2018-10-03T17:06:23.312Z,4.27
2018-10-03T17:08:52.322Z,9.33
2018-10-03T17:11:21.394Z,10.67
2018-10-03T17:13:55.875Z,7.53
2018-10-03T17:16:24.921Z,5.47
2018-10-03T17:18:53.876Z,6.80
2018-10-03T17:21:23.161Z,4.37
2018-10-03T17:23:51.994Z,8.43
2018-10-03T17:26:20.859Z,5.47
2018-10-03T17:28:49.804Z,5.70
2018-10-03T17:31:18.779Z,8.60
2018-10-03T17:33:47.764Z,7.33
2018-10-03T17:36:16.619Z,6.87
2018-10-03T17:38:45.535Z,8.90
2018-10-03T17:41:14.385Z,9.83
2018-10-03T17:43:43.200Z,8.67
2018-10-03T17:46:12.072Z,4.17
2018-10-03T17:48:41.368Z,10.53
2018-10-03T17:51:10.425Z,8.13
2018-10-03T17:53:39.350Z,7.30
2018-10-03T17:56:08.325Z,11.00
2018-10-03T17:58:37.270Z,9.17
2018-10-03T18:01:06.229Z,13.37
2018-10-03T18:03:35.118Z,13.10
2018-10-03T18:06:03.959Z,5.30
2018-10-03T18:08:32.799Z,8.87
2018-10-03T18:11:01.656Z,12.77
2018-10-03T18:13:30.677Z,8.10
2018-10-03T18:15:59.466Z,11.47
2018-10-03T18:18:28.260Z,9.90
2018-10-03T18:20:57.126Z,11.67
2018-10-03T18:23:25.984Z,10.10
2018-10-03T18:25:54.828Z,10.57
2018-10-03T18:28:23.677Z,9.93
2018-10-03T18:30:52.527Z,7.70
2018-10-03T18:33:21.524Z,9.93
2018-10-03T18:35:50.392Z,14.43
2018-10-03T18:38:19.326Z,10.90
2018-10-03T18:40:48.141Z,11.03
2018-10-03T18:43:17.307Z,13.43
2018-10-03T18:45:46.240Z,8.90
2018-10-03T18:48:15.095Z,9.90
2018-10-03T18:50:43.986Z,10.97
2018-10-03T18:53:12.826Z,12.20
2018-10-03T18:55:41.644Z,10.90
2018-10-03T18:58:10.521Z,13.00
2018-10-03T19:00:39.319Z,13.53
2018-10-03T19:03:08.213Z,9.77
2018-10-03T19:05:37.106Z,14.73
2018-10-03T19:08:05.981Z,16.33
2018-10-03T19:10:34.836Z,12.90
2018-10-03T19:13:03.920Z,11.20
2018-10-03T19:15:33.071Z,17.73
2018-10-03T19:35:23.172Z,10.93
2018-10-03T19:37:52.101Z,15.30
2018-10-03T19:40:21.003Z,18.13
2018-10-03T19:42:49.982Z,17.47
2018-10-03T19:45:19.044Z,17.23
2018-10-03T19:47:48.417Z,15.57
2018-10-03T19:50:17.331Z,21.97
2018-10-03T19:52:46.531Z,18.87
2018-10-03T19:55:15.470Z,20.43
2018-10-03T19:57:44.519Z,15.93
2018-10-03T20:00:13.641Z,20.13
2018-10-03T20:02:42.594Z,17.43
2018-10-03T20:05:11.515Z,21.23
2018-10-03T20:07:40.336Z,26.57
2018-10-03T20:10:09.215Z,21.17
2018-10-03T20:12:38.074Z,23.43
2018-10-03T20:15:07.695Z,15.13
2018-10-03T20:17:36.530Z,13.43
2018-10-03T20:20:05.445Z,24.20
2018-10-03T20:22:34.306Z,15.93
2018-10-03T20:25:03.128Z,19.77
2018-10-03T20:27:32.038Z,19.50
2018-10-03T20:30:00.868Z,18.73
2018-10-03T20:32:29.766Z,28.40
2018-10-03T20:34:58.665Z,23.67
2018-10-03T20:37:27.533Z,24.53
2018-10-03T20:39:56.397Z,25.37
2018-10-03T20:42:25.264Z,29.10
2018-10-03T20:44:54.111Z,29.63
2018-10-03T20:47:23.041Z,24.70
2018-10-03T20:49:52.396Z,23.57
2018-10-03T20:52:22.912Z,20.37
2018-10-03T20:54:51.730Z,25.53
2018-10-03T20:57:20.634Z,26.17
2018-10-03T20:59:49.532Z,31.60
2018-10-03T21:02:18.473Z,28.50
2018-10-03T21:04:47.325Z,25.93
2018-10-03T21:07:16.224Z,31.40
2018-10-03T21:09:45.081Z,30.53
2018-10-03T21:12:13.949Z,31.10
2018-10-03T21:14:42.752Z,34.67
2018-10-03T21:17:11.594Z,21.43
2018-10-03T21:19:40.471Z,35.40
2018-10-03T21:22:09.368Z,27.70
2018-10-03T21:24:38.186Z,25.13
2018-10-03T21:27:07.145Z,22.03
2018-10-03T21:29:35.937Z,16.43
2018-10-03T21:32:04.773Z,22.23
2018-10-03T21:34:33.617Z,24.50
2018-10-03T21:37:02.456Z,16.40
2018-10-03T21:39:31.539Z,27.27
2018-10-03T21:42:01.725Z,27.57
2018-10-03T21:44:32.088Z,22.80
2018-10-03T21:47:01.185Z,17.77
2018-10-03T21:49:29.981Z,25.27
2018-10-03T21:51:58.804Z,22.93
2018-10-03T21:54:27.655Z,26.43
2018-10-03T21:56:56.542Z,20.93
2018-10-03T21:59:25.421Z,20.23
2018-10-03T22:01:54.334Z,27.00
2018-10-03T22:04:23.153Z,22.17
2018-10-03T22:06:52.072Z,22.03
2018-10-03T22:09:20.933Z,25.37
2018-10-03T22:11:49.805Z,29.27
2018-10-03T22:14:18.720Z,28.60
2018-10-03T22:16:47.546Z,20.97
2018-10-03T22:19:16.368Z,21.20
2018-10-03T22:21:45.194Z,25.70
2018-10-03T22:24:14.079Z,21.73
2018-10-03T22:26:42.915Z,19.63
2018-10-03T22:29:11.793Z,19.40
2018-10-03T22:31:40.619Z,18.77
2018-10-03T22:34:09.645Z,24.63
2018-10-03T22:36:38.544Z,22.07
2018-10-03T22:39:08.514Z,22.10
2018-10-03T22:41:37.339Z,21.43
2018-10-03T22:44:06.218Z,22.53
2018-10-03T22:46:35.026Z,25.73
2018-10-03T22:49:03.880Z,20.83
2018-10-03T22:51:32.700Z,25.43
2018-10-03T22:54:01.637Z,34.73
2018-10-03T22:56:30.456Z,22.33
2018-10-03T22:58:59.289Z,25.87
2018-10-03T23:01:28.172Z,24.87
2018-10-03T23:03:57.028Z,17.33
2018-10-03T23:06:25.865Z,24.37
2018-10-03T23:08:54.715Z,16.93
2018-10-03T23:11:23.533Z,24.63
2018-10-03T23:13:52.409Z,28.23
2018-10-03T23:16:21.220Z,25.53
2018-10-03T23:18:50.047Z,31.03
2018-10-03T23:21:18.832Z,25.33
2018-10-03T23:23:47.685Z,25.63
2018-10-03T23:26:16.517Z,25.03
2018-10-03T23:28:45.401Z,22.33
2018-10-03T23:31:14.268Z,25.53
2018-10-03T23:33:43.148Z,21.53
2018-10-03T23:36:12.039Z,21.93
2018-10-03T23:38:41.132Z,26.10
2018-10-03T23:41:10.072Z,19.43
2018-10-03T23:43:38.896Z,16.87
2018-10-03T23:46:07.991Z,18.87
2018-10-03T23:48:36.883Z,15.73
2018-10-03T23:51:05.796Z,19.17
2018-10-03T23:53:34.684Z,13.43
2018-10-03T23:56:03.556Z,15.93
2018-10-03T23:58:32.356Z,15.10
